This is the latest recevied weather packets stored in our database for station/object KG7DQI-13. If no packets are shown the sender has not sent any weather packets the latest 1 day(s).
| Time | Temp. | Humidity | Pressure | Rain* | Wind** | Luminosity | Snow |
|---|---|---|---|---|---|---|---|
| 1836274242 | 17.78° C | 54% | 913.3 hPa | 0 mm | 0 m/s | 0 W/m² | - |
| 1836274106 | 18.89° C | 53% | 913.1 hPa | 0 mm | 0 m/s | 0 W/m² | - |
| 1778052742 | 12.78° C | 74% | 914.2 hPa | 0 mm | 0 m/s | 0 W/m² | - |
| 1778051870 | 12.78° C | 74% | 914.2 hPa | 0 mm | 0 m/s | 0 W/m² | - |
| 1778051004 | 13.33° C | 72% | 914.1 hPa | 0 mm | 0 m/s | 0 W/m² | - |
| 1778050062 | 13.89° C | 69% | 914 hPa | 0 mm | 0 m/s | 0 W/m² | - |
| 1778049171 | 15° C | 67% | 913.9 hPa | 0 mm | 0 m/s | 0 W/m² | - |
| 1778048296 | 16.11° C | 65% | 913.9 hPa | 0 mm | 0 m/s | 0 W/m² | - |
| 1778047400 | 16.11° C | 65% | 914.2 hPa | 0 mm | 0 m/s | 0 W/m² | - |
| 1778046508 | 16.67° C | 64% | 913.6 hPa | 0 mm | 0 m/s | 0 W/m² | - |
| 1778045559 | 17.22° C | 62% | 913.5 hPa | 0 mm | 0 m/s | 0 W/m² | - |
| 1778044640 | 18.33° C | 59% | 913.2 hPa | 0 mm | 0.45 m/s, 227° | 0 W/m² | - |
| 1778043735 | 18.33° C | 59% | 913.1 hPa | 0 mm | 0 m/s | 0 W/m² | - |
| 1778042855 | 18.89° C | 58% | 913.1 hPa | 0 mm | 0 m/s | 0 W/m² | - |
| 1778041905 | 19.44° C | 58% | 912.9 hPa | 0 mm | 0.45 m/s, 210° | 0 W/m² | - |
| 1778041016 | 20° C | 57% | 912.9 hPa | 0 mm | 0 m/s | 0 W/m² | - |
| 1778040104 | 20° C | 56% | 912.5 hPa | 0 mm | 0 m/s | 0 W/m² | - |
| 1778039185 | 20° C | 52% | 912.3 hPa | 0 mm | 0 m/s | 0 W/m² | - |
| 1778038257 | 20.56° C | 48% | 912.1 hPa | 0 mm | 0 m/s | 0 W/m² | - |
| 1778037318 | 21.11° C | 46% | 911.9 hPa | 0 mm | 0 m/s | 0 W/m² | - |
| 1778036376 | 21.67° C | 44% | 911.8 hPa | 0 mm | 0 m/s | 11 W/m² | - |
| 1778035466 | 22.78° C | 43% | 911.7 hPa | 0 mm | 0 m/s | 16 W/m² | - |
| 1778034605 | 23.33° C | 41% | 911.6 hPa | 0 mm | 0 m/s | 21 W/m² | - |
| 1778033674 | 23.89° C | 39% | 911.6 hPa | 0 mm | 0 m/s | 37 W/m² | - |
| 1778032746 | 23.89° C | 39% | 911.5 hPa | 0 mm | 0 m/s | 44 W/m² | - |
* Rain latest hour (hover to see other rain measurements)
** Current wind speed in m/s (hover to see current wind gust speed)